Wichita, KS (67209)

2:53 PM CDT on April 25, 2015 (GMT -0500)
Near the airport | | Change Station
CLOSE
Current Station
Personal Weather Station
Location: Wichita, KS
Elevation: 1348 ft
Nearby Weather Stations

Elev 1348 ft 37.65 °N, 97.44 °W | Updated 3 minutes ago

Scattered Clouds
Scattered Clouds
73.4 °F
Feels Like 77 °F
N
11.0
Wind Variable Wind from NNW
Gusts 18.0 mph

Today
High -- | Low -- °F
--% Chance of Precip.
Yesterday
High -- | Low -- °F
Precip. -- in
6:41 AM 8:14 PM
Waxing Crescent, 48% visible
Pressure 29.58 in
Visibility 10.0 miles
Clouds Few 3500 ft
Scattered Clouds 4500 ft
Scattered Clouds 18000 ft
Heat Index 77 °F
Dew Point 59 °F
Humidity 60%
Rainfall 0.02 in
Snow Depth Not available.
UV 9 out of 12
Pollen 11.20 out of 12
Air Quality Not available.
Flu Activity Sporadic
METAR KICT 251853Z 30017G23KT 10SM FEW035 SCT045 SCT180 24/11 A2962 RMK AO2 SLP017 T02390106

More Conditions Fewer Conditions

Pressure 29.58 in
Visibility 10.0 miles
Clouds Few 3500 ft
Scattered Clouds 4500 ft
Scattered Clouds 18000 ft
Heat Index 77 °F
Dew Point 59 °F
Humidity 60%
Rainfall 0.02 in
Snow Depth Not available.
UV 9 out of 12
Pollen 11.20 out of 12
Air Quality Not available.
Flu Activity Sporadic
METAR KICT 251853Z 30017G23KT 10SM FEW035 SCT045 SCT180 24/11 A2962 RMK AO2 SLP017 T02390106

More Conditions Fewer Conditions

10-Day Weather Forecast

Almanac

Astronomy

Apr. 25, 2015 Rise Set
Actual Time
Civil Twilight
Nautical Twilight
Astronomical Twilight
Moon
Length of Visible Light
Length of Day
Tomorrow will be .
, % of the Moon is Illuminated

Today's Extremes

State Highs State Lows

Community

WunderPhotos

Upload Photos

1,816,791 photos uploaded!

WunderBlogs® & News

Nearby

Air Quality

  Air Quality AQ Index Pollutant
Not available.

Snow Depth

Station Depth Elevation

Earthquake Activity

City Distance Mag. Time & Date
Minimum magnitude displayed is 2.5.

Coastal Water Temperatures

Place Temperature

Stations

Nearby Weather Stations

Station Location Temp. Windchill Dew Point Humidity Wind Precip. Elev Updated Type